CheckWX is a tool to help pilots better visualize weather data.  It is not intended as a substitute for an official pre-flight weather briefing.

11:56:20 UTC

2I0 METAR
Madisonville Regional Airport
Madisonville, Kentucky, USA
Current

41 mins ago

K2I0 171115Z AUTO 00000KT 10SM OVC015 03/01 A2977 RMK AO2 T00250006
Observed
Feb-17 @ 11:15 UTC
Visibility
10 SM
Flight Rules
MVFR
Cloud Levels
  • Overcast at 1,500' AGL
Temperature
C / 37°F
Dewpoint
C / 34°F
Humidity
87%
Altimeter
29.77" Hg
Pressure
1008.12 hPa
Previous

1 hour ago

K2I0 171055Z AUTO 11005KT 10SM OVC015 02/01 A2976 RMK AO2 T00230007
Observed
Feb-17 @ 10:55 UTC
Wind
  • 110° at 5 KTS
Visibility
10 SM
Flight Rules
MVFR
Cloud Levels
  • Overcast at 1,500' AGL
Temperature
C / 36°F
Dewpoint
C / 34°F
Humidity
93%
Altimeter
29.76" Hg
Pressure
1007.82 hPa
Previous

1 hour ago

K2I0 171035Z AUTO 09005KT 10SM OVC013 03/01 A2976 RMK AO2 T00250005
Observed
Feb-17 @ 10:35 UTC
Wind
  • 090° at 5 KTS
Visibility
10 SM
Flight Rules
MVFR
Cloud Levels
  • Overcast at 1,300' AGL
Temperature
C / 37°F
Dewpoint
C / 34°F
Humidity
87%
Altimeter
29.76" Hg
Pressure
1007.82 hPa